Time;durP1;ratioP1;P1;durP2;ratioP2;P2;SDS_P1;SDS_P2;PMS_P1;PMS_P2;Temp;Humidity;BMP_temperature;BMP_pressure;BME280_temperature;BME280_humidity;BME280_pressure;Samples;Min_cycle;Max_cycle;Signal;HPM_P1;HPM_P2
2023/07/07 00:00:52;;;;;;;9.13;5.50;;;;;;;15.01;100.00;101785.53;5013199;28;20050;-59
2023/07/07 00:03:20;;;;;;;9.23;5.80;;;;;;;15.03;100.00;101790.72;5008819;28;20051;-59
2023/07/07 00:05:48;;;;;;;9.35;5.55;;;;;;;14.98;100.00;101796.34;5003449;28;20085;-58
2023/07/07 00:08:16;;;;;;;9.15;5.32;;;;;;;14.97;100.00;101794.66;4994973;28;20050;-59
2023/07/07 00:10:45;;;;;;;9.05;6.15;;;;;;;14.87;100.00;101794.44;4995604;28;20038;-59
2023/07/07 00:13:16;;;;;;;9.60;5.88;;;;;;;14.83;100.00;101797.38;5008155;28;20054;-59
2023/07/07 00:15:45;;;;;;;8.80;5.80;;;;;;;14.84;100.00;101797.28;5009263;28;20058;-59
2023/07/07 00:18:26;;;;;;;8.00;5.45;;;;;;;14.80;100.00;101794.94;5009044;28;20402;-58
2023/07/07 00:20:55;;;;;;;9.30;5.35;;;;;;;14.79;100.00;101794.13;5008901;28;20536;-58
2023/07/07 00:23:24;;;;;;;10.45;5.05;;;;;;;14.80;100.00;101793.13;5009538;28;20069;-58
2023/07/07 00:26:04;;;;;;;10.20;5.47;;;;;;;14.71;100.00;101791.09;5009713;28;20042;-58
2023/07/07 00:28:34;;;;;;;8.18;5.40;;;;;;;14.66;100.00;101788.78;5009614;28;20101;-60
2023/07/07 00:31:02;;;;;;;10.73;5.53;;;;;;;14.67;100.00;101798.44;5009347;28;20041;-58
2023/07/07 00:33:31;;;;;;;9.50;5.18;;;;;;;14.61;100.00;101803.25;5011069;28;20400;-58
2023/07/07 00:35:59;;;;;;;8.23;5.28;;;;;;;14.66;100.00;101796.72;5009503;28;20042;-60
2023/07/07 00:38:27;;;;;;;8.38;4.90;;;;;;;14.58;100.00;101806.13;5009033;28;20432;-59
2023/07/07 00:40:55;;;;;;;7.65;5.03;;;;;;;14.52;100.00;101796.78;5008966;28;20426;-60
2023/07/07 00:43:24;;;;;;;9.10;5.78;;;;;;;14.56;100.00;101798.28;4999826;28;20049;-59
2023/07/07 00:45:57;;;;;;;7.80;5.85;;;;;;;14.55;100.00;101793.94;5027930;28;20041;-60
2023/07/07 00:48:27;;;;;;;9.23;5.47;;;;;;;14.48;100.00;101796.13;5020312;28;20046;-60
2023/07/07 00:51:01;;;;;;;9.00;5.57;;;;;;;14.39;100.00;101802.03;5008900;28;20060;-59
2023/07/07 00:53:31;;;;;;;11.13;5.88;;;;;;;14.35;100.00;101805.84;5008312;28;20144;-60
2023/07/07 00:56:05;;;;;;;11.43;6.63;;;;;;;14.40;100.00;101802.88;5008117;28;20042;-60
2023/07/07 00:58:35;;;;;;;10.27;6.10;;;;;;;14.34;100.00;101805.00;5008612;28;20080;-60
2023/07/07 01:01:12;;;;;;;12.63;6.70;;;;;;;14.33;100.00;101803.28;5009072;28;20152;-60
2023/07/07 01:03:42;;;;;;;9.45;6.38;;;;;;;14.30;100.00;101802.63;4997676;28;20323;-60
2023/07/07 01:06:15;;;;;;;10.13;6.88;;;;;;;14.28;100.00;101799.25;5008243;28;20473;-60
2023/07/07 01:08:51;;;;;;;10.77;6.47;;;;;;;14.26;100.00;101798.50;5008231;28;20041;-60
2023/07/07 01:11:20;;;;;;;8.35;5.88;;;;;;;14.25;100.00;101805.59;5007889;28;20042;-60
2023/07/07 01:13:48;;;;;;;9.15;6.28;;;;;;;14.20;100.00;101808.53;4999993;28;20056;-60
2023/07/07 01:16:24;;;;;;;10.73;6.70;;;;;;;14.21;100.00;101801.44;5011754;28;20041;-59
2023/07/07 01:19:00;;;;;;;8.23;6.35;;;;;;;14.15;100.00;101796.53;5015626;28;20440;-59
2023/07/07 01:21:33;;;;;;;9.95;7.07;;;;;;;14.11;100.00;101793.28;5011747;28;20132;-60
2023/07/07 01:24:35;;;;;;;9.90;6.28;;;;;;;14.13;100.00;101795.81;5008266;28;20054;-60
2023/07/07 01:27:30;;;;;;;11.35;7.13;;;;;;;14.06;100.00;101790.06;5010201;28;20049;-60
2023/07/07 01:30:30;;;;;;;8.65;6.05;;;;;;;14.15;100.00;101789.47;5009282;28;20050;-60
2023/07/07 01:33:00;;;;;;;9.00;6.88;;;;;;;14.08;100.00;101797.91;5006973;28;20129;-59
2023/07/07 01:35:28;;;;;;;9.65;6.78;;;;;;;13.96;100.00;101795.13;5008922;28;20046;-59
2023/07/07 01:37:59;;;;;;;10.48;6.75;;;;;;;13.94;100.00;101799.63;5008041;28;20319;-58
2023/07/07 01:40:36;;;;;;;10.07;6.28;;;;;;;13.92;100.00;101803.31;5008633;28;20046;-60
2023/07/07 01:43:09;;;;;;;10.27;6.50;;;;;;;13.86;100.00;101804.56;5006673;28;20076;-58
2023/07/07 01:45:48;;;;;;;9.23;6.03;;;;;;;13.82;100.00;101803.91;4991785;28;20046;-58
2023/07/07 01:48:31;;;;;;;8.20;5.93;;;;;;;13.78;100.00;101805.06;4996268;28;20073;-58
2023/07/07 01:51:02;;;;;;;10.15;6.30;;;;;;;13.80;100.00;101794.41;5000955;28;20425;-58
2023/07/07 01:53:32;;;;;;;9.48;6.30;;;;;;;13.78;100.00;101798.94;5019346;28;20081;-58
2023/07/07 01:56:02;;;;;;;11.13;6.85;;;;;;;13.75;100.00;101799.97;5011711;28;20061;-59
2023/07/07 01:58:32;;;;;;;9.50;6.20;;;;;;;13.66;100.00;101798.75;5013294;28;20097;-57
2023/07/07 02:01:05;;;;;;;9.52;6.20;;;;;;;13.71;100.00;101803.75;5009649;28;20107;-58
2023/07/07 02:03:33;;;;;;;12.38;6.82;;;;;;;13.68;100.00;101799.50;4997117;28;20038;-59
2023/07/07 02:06:01;;;;;;;11.13;6.30;;;;;;;13.63;100.00;101796.31;4996509;28;20811;-59
2023/07/07 02:08:29;;;;;;;8.00;6.13;;;;;;;13.63;100.00;101800.75;4995793;28;20505;-59
2023/07/07 02:10:57;;;;;;;9.25;6.30;;;;;;;13.59;100.00;101797.44;4995141;28;20085;-58
2023/07/07 02:13:26;;;;;;;8.80;6.32;;;;;;;13.55;100.00;101795.94;4996285;28;20061;-58
2023/07/07 02:15:54;;;;;;;11.25;6.85;;;;;;;13.58;100.00;101786.97;4999693;28;20045;-61
2023/07/07 02:18:26;;;;;;;10.13;6.68;;;;;;;13.56;100.00;101792.34;4998375;28;20139;-59
2023/07/07 02:20:55;;;;;;;11.02;7.18;;;;;;;13.52;100.00;101794.34;4994836;28;20051;-58
2023/07/07 02:23:24;;;;;;;8.07;6.53;;;;;;;13.50;100.00;101798.88;4996158;28;20042;-60
2023/07/07 02:25:52;;;;;;;10.93;6.82;;;;;;;13.50;100.00;101798.88;4995408;28;20031;-60
2023/07/07 02:28:20;;;;;;;9.65;6.57;;;;;;;13.55;100.00;101797.72;5000122;28;20105;-60
2023/07/07 02:30:48;;;;;;;9.57;6.47;;;;;;;13.49;100.00;101797.16;5002427;28;20053;-58
2023/07/07 02:33:17;;;;;;;10.38;6.70;;;;;;;13.42;100.00;101800.31;4996065;28;20054;-59
2023/07/07 02:35:48;;;;;;;10.43;6.35;;;;;;;13.39;100.00;101800.47;5009510;28;20087;-58
2023/07/07 02:38:17;;;;;;;8.32;6.10;;;;;;;13.43;100.00;101801.97;5002987;28;20100;-59
2023/07/07 02:40:45;;;;;;;10.48;6.65;;;;;;;13.38;100.00;101804.09;5006101;28;20057;-60
2023/07/07 02:43:13;;;;;;;11.30;7.32;;;;;;;13.40;100.00;101804.81;5001221;28;20054;-59
2023/07/07 02:45:44;;;;;;;9.77;6.90;;;;;;;13.43;100.00;101801.97;4998627;28;20043;-60
2023/07/07 02:48:12;;;;;;;10.23;6.68;;;;;;;13.29;100.00;101806.31;4995703;28;20054;-59
2023/07/07 02:50:40;;;;;;;12.05;6.88;;;;;;;13.30;100.00;101805.34;5001457;28;20081;-59
2023/07/07 02:53:10;;;;;;;9.80;6.45;;;;;;;13.27;100.00;101808.19;4998199;28;20042;-59
2023/07/07 02:55:38;;;;;;;9.80;6.70;;;;;;;13.27;100.00;101808.19;4990375;28;20038;-59
2023/07/07 02:58:06;;;;;;;8.73;7.00;;;;;;;13.20;100.00;101809.50;5004204;28;20045;-58
2023/07/07 03:00:34;;;;;;;9.00;6.95;;;;;;;13.22;100.00;101815.53;4997726;28;20050;-58
2023/07/07 03:03:03;;;;;;;12.65;7.22;;;;;;;13.17;100.00;101818.47;5009432;28;20060;-58
2023/07/07 03:05:32;;;;;;;12.13;7.05;;;;;;;13.22;100.00;101817.34;4998952;28;20052;-59
2023/07/07 03:08:00;;;;;;;10.50;6.85;;;;;;;13.15;100.00;101812.41;4996260;28;20038;-58
2023/07/07 03:10:31;;;;;;;9.25;6.97;;;;;;;13.19;100.00;101819.22;4998405;28;20132;-59
2023/07/07 03:13:00;;;;;;;9.48;6.53;;;;;;;13.21;100.00;101813.88;5004417;28;20046;-60
2023/07/07 03:15:29;;;;;;;13.27;7.43;;;;;;;13.16;100.00;101822.03;5020939;28;20045;-59
2023/07/07 03:17:57;;;;;;;9.82;6.75;;;;;;;13.11;100.00;101823.28;5011006;28;20413;-60
2023/07/07 03:20:26;;;;;;;10.45;7.00;;;;;;;13.13;100.00;101816.09;5012271;28;20046;-58
2023/07/07 03:22:55;;;;;;;9.73;6.40;;;;;;;13.07;100.00;101816.47;5011479;28;20363;-58
2023/07/07 03:25:25;;;;;;;11.55;7.30;;;;;;;13.06;100.00;101822.69;5007586;28;20046;-59
2023/07/07 03:27:55;;;;;;;10.32;7.03;;;;;;;12.99;100.00;101820.44;5013753;28;20560;-59
2023/07/07 03:30:23;;;;;;;11.82;6.85;;;;;;;12.90;100.00;101826.25;5010392;28;20120;-62
2023/07/07 03:32:51;;;;;;;10.65;7.18;;;;;;;12.95;100.00;101823.34;5016476;28;20501;-58
2023/07/07 03:35:20;;;;;;;12.05;7.10;;;;;;;12.92;100.00;101819.06;5022915;28;20041;-58
2023/07/07 03:37:48;;;;;;;11.15;7.30;;;;;;;12.90;100.00;101820.97;5009944;28;20061;-59
2023/07/07 03:40:16;;;;;;;10.30;7.20;;;;;;;12.82;100.00;101823.22;5010269;28;20058;-59
2023/07/07 03:42:45;;;;;;;10.45;7.68;;;;;;;12.92;100.00;101829.63;5009826;28;20069;-58
2023/07/07 03:45:16;;;;;;;10.80;7.70;;;;;;;12.85;100.00;101833.59;5010222;28;20881;-59
2023/07/07 03:47:45;;;;;;;13.27;7.63;;;;;;;12.82;100.00;101823.22;5008885;28;20042;-59
2023/07/07 03:50:13;;;;;;;11.07;7.55;;;;;;;12.94;100.00;101833.06;5010158;28;20296;-60
2023/07/07 03:52:41;;;;;;;10.23;7.28;;;;;;;12.90;100.00;101828.91;5009718;28;20429;-59
2023/07/07 03:55:10;;;;;;;10.05;7.88;;;;;;;12.81;100.00;101832.91;5009644;28;20049;-59
2023/07/07 03:57:38;;;;;;;10.10;7.20;;;;;;;12.80;100.00;101825.97;5009910;28;20030;-59
2023/07/07 04:00:08;;;;;;;10.45;7.63;;;;;;;12.81;100.00;101832.91;5009798;28;20592;-58
2023/07/07 04:02:38;;;;;;;9.63;7.28;;;;;;;12.78;100.00;101833.09;5008772;28;20078;-58
2023/07/07 04:05:06;;;;;;;11.02;7.70;;;;;;;12.78;100.00;101842.81;5009577;28;20137;-58
2023/07/07 04:07:35;;;;;;;11.20;8.00;;;;;;;12.81;100.00;101834.72;5019435;28;20088;-57
2023/07/07 04:10:03;;;;;;;10.50;8.02;;;;;;;12.73;100.00;101836.97;5011298;28;20054;-59
2023/07/07 04:12:32;;;;;;;10.35;7.80;;;;;;;12.75;100.00;101840.34;5010112;28;20046;-59
2023/07/07 04:15:03;;;;;;;11.13;7.70;;;;;;;12.78;100.00;101841.03;5009197;28;20054;-58
2023/07/07 04:17:32;;;;;;;12.27;8.05;;;;;;;12.80;100.00;101838.28;5008597;28;20050;-59
2023/07/07 04:20:02;;;;;;;14.32;8.93;;;;;;;12.79;100.00;101841.91;5009188;28;20046;-59
2023/07/07 04:22:31;;;;;;;11.07;7.82;;;;;;;12.77;100.00;101836.69;5009261;28;20684;-58
2023/07/07 04:25:10;;;;;;;11.65;8.45;;;;;;;12.80;100.00;101835.66;5009367;28;20504;-58
2023/07/07 04:27:38;;;;;;;10.00;7.45;;;;;;;12.88;100.00;101837.84;5009381;28;20508;-58
2023/07/07 04:30:08;;;;;;;11.55;7.72;;;;;;;12.90;100.00;101846.50;5009230;28;20045;-58
2023/07/07 04:32:36;;;;;;;12.15;8.43;;;;;;;12.93;100.00;101841.06;5008378;28;20121;-59
2023/07/07 04:35:07;;;;;;;12.32;9.07;;;;;;;12.91;100.00;101835.88;5011684;28;20563;-59
2023/07/07 04:37:35;;;;;;;10.95;8.93;;;;;;;12.93;100.00;101843.72;5015211;28;20516;-60
2023/07/07 04:40:04;;;;;;;14.25;9.57;;;;;;;12.98;100.00;101841.66;5023980;28;20476;-58
2023/07/07 04:42:32;;;;;;;15.20;9.77;;;;;;;12.98;100.00;101839.00;5011940;28;20095;-57
2023/07/07 04:45:00;;;;;;;15.93;10.23;;;;;;;13.06;100.00;101833.25;5016296;28;20042;-58
2023/07/07 04:47:29;;;;;;;12.82;9.63;;;;;;;13.13;100.00;101837.22;5016457;28;20050;-58
2023/07/07 04:49:57;;;;;;;16.13;10.77;;;;;;;13.12;100.00;101838.19;5007494;28;20121;-57
2023/07/07 04:52:26;;;;;;;14.52;10.20;;;;;;;13.22;100.00;101843.75;5022360;28;20556;-57
2023/07/07 04:54:55;;;;;;;12.80;9.43;;;;;;;13.20;100.00;101841.22;5007684;28;20117;-57
2023/07/07 04:57:23;;;;;;;14.88;11.18;;;;;;;13.26;100.00;101835.53;5013501;28;20030;-57
2023/07/07 04:59:51;;;;;;;14.50;10.38;;;;;;;13.27;100.00;101839.88;5008926;28;20121;-57
2023/07/07 05:02:22;;;;;;;13.07;10.23;;;;;;;13.32;100.00;101843.09;5009198;28;20049;-57
2023/07/07 05:04:51;;;;;;;15.13;10.23;;;;;;;13.34;100.00;101843.84;5021621;28;20358;-57
2023/07/07 05:07:22;;;;;;;15.85;10.52;;;;;;;13.38;100.00;101841.91;5017063;28;20103;-57
2023/07/07 05:09:51;;;;;;;12.85;10.18;;;;;;;13.45;100.00;101831.81;5012396;28;20100;-57
2023/07/07 05:12:20;;;;;;;14.10;10.55;;;;;;;13.49;100.00;101838.59;5014800;28;20535;-56
2023/07/07 05:14:52;;;;;;;14.93;11.20;;;;;;;13.55;100.00;101843.50;5011610;28;20046;-57
2023/07/07 05:17:20;;;;;;;16.90;10.88;;;;;;;13.66;100.00;101851.63;5019024;28;20236;-57
2023/07/07 05:19:48;;;;;;;14.50;10.95;;;;;;;13.71;100.00;101842.56;5028274;28;20540;-57
2023/07/07 05:22:17;;;;;;;15.48;10.80;;;;;;;13.77;100.00;101848.31;5022081;28;20053;-57
2023/07/07 05:24:45;;;;;;;15.95;11.00;;;;;;;13.84;100.00;101851.44;5007658;28;20049;-57
2023/07/07 05:27:17;;;;;;;12.10;10.10;;;;;;;13.90;100.00;101852.84;5007844;28;20100;-57
2023/07/07 05:29:45;;;;;;;13.95;9.38;;;;;;;14.10;100.00;101854.22;5007135;28;20572;-57
2023/07/07 05:32:14;;;;;;;13.95;10.20;;;;;;;14.11;100.00;101864.69;5010489;28;20127;-56
2023/07/07 05:34:42;;;;;;;12.73;9.68;;;;;;;14.23;100.00;101856.91;5008212;28;20078;-57
2023/07/07 05:37:10;;;;;;;14.02;9.68;;;;;;;14.38;100.00;101861.19;5009963;28;20052;-55
2023/07/07 05:39:38;;;;;;;13.50;10.07;;;;;;;14.52;100.00;101861.16;5009749;28;20096;-57
2023/07/07 05:42:08;;;;;;;13.95;9.48;;;;;;;14.64;100.00;101867.47;5008127;28;20046;-57
2023/07/07 05:44:37;;;;;;;10.70;8.60;;;;;;;14.73;100.00;101867.81;5008311;28;20095;-56
2023/07/07 05:47:06;;;;;;;13.80;9.52;;;;;;;15.00;100.00;101873.06;5010299;28;20513;-57
2023/07/07 05:49:34;;;;;;;13.68;9.93;;;;;;;15.12;100.00;101863.41;5007140;28;20046;-57
2023/07/07 05:52:02;;;;;;;15.27;9.63;;;;;;;15.38;100.00;101867.78;5008111;28;20115;-56
2023/07/07 05:54:31;;;;;;;13.68;9.80;;;;;;;15.45;100.00;101872.66;5008151;28;20088;-56
2023/07/07 05:57:00;;;;;;;12.85;9.55;;;;;;;15.47;100.00;101862.78;5008109;28;20050;-57
2023/07/07 05:59:31;;;;;;;15.07;8.88;;;;;;;15.65;100.00;101865.94;5007712;28;20038;-58
2023/07/07 06:02:00;;;;;;;13.07;9.10;;;;;;;15.68;100.00;101869.22;4987573;28;20047;-57
2023/07/07 06:04:29;;;;;;;13.20;8.50;;;;;;;15.79;100.00;101859.66;5001412;28;20566;-57
2023/07/07 06:06:57;;;;;;;13.05;8.23;;;;;;;15.92;100.00;101863.16;5015507;28;20053;-56
2023/07/07 06:09:25;;;;;;;13.30;8.88;;;;;;;16.14;100.00;101862.47;5023111;28;20498;-57
2023/07/07 06:11:56;;;;;;;13.82;7.38;;;;;;;16.22;100.00;101862.75;5011307;28;20124;-57
2023/07/07 06:14:25;;;;;;;14.93;8.32;;;;;;;16.52;100.00;101860.59;5016340;28;20049;-57
2023/07/07 06:16:55;;;;;;;10.63;7.32;;;;;;;16.66;100.00;101857.78;5028266;28;20513;-57
2023/07/07 06:19:24;;;;;;;13.20;7.45;;;;;;;16.85;100.00;101861.66;5024887;28;20051;-57
2023/07/07 06:21:53;;;;;;;10.73;5.90;;;;;;;17.05;100.00;101870.81;5007552;28;20081;-57
2023/07/07 06:24:21;;;;;;;12.98;6.75;;;;;;;17.13;100.00;101870.25;5016765;28;20077;-56
2023/07/07 06:26:49;;;;;;;11.10;6.13;;;;;;;17.34;100.00;101876.56;5008004;28;20050;-57
2023/07/07 06:29:17;;;;;;;10.10;5.93;;;;;;;17.42;100.00;101875.13;5007470;28;20117;-57
2023/07/07 06:31:45;;;;;;;9.30;5.80;;;;;;;17.55;100.00;101876.69;5025726;28;20049;-57
2023/07/07 06:34:13;;;;;;;12.38;6.38;;;;;;;17.75;100.00;101868.94;5025737;28;20095;-57
2023/07/07 06:36:43;;;;;;;10.35;5.43;;;;;;;17.83;100.00;101871.00;5021642;28;20523;-58
2023/07/07 06:39:11;;;;;;;11.48;5.38;;;;;;;17.97;100.00;101876.09;5029855;28;20033;-57
2023/07/07 06:41:39;;;;;;;12.00;5.57;;;;;;;18.16;100.00;101880.78;5014816;28;20382;-58
2023/07/07 06:44:08;;;;;;;10.35;5.38;;;;;;;18.29;100.00;101880.59;5029332;28;20555;-57
2023/07/07 06:46:36;;;;;;;10.95;5.40;;;;;;;18.47;100.00;101888.06;5016533;28;20056;-59
2023/07/07 06:49:04;;;;;;;12.90;5.72;;;;;;;18.67;100.00;101873.09;5028578;28;20397;-58
2023/07/07 06:51:32;;;;;;;12.70;6.05;;;;;;;18.89;100.00;101874.84;5031430;28;20050;-58
2023/07/07 06:54:02;;;;;;;14.50;5.80;;;;;;;19.09;100.00;101879.31;5016039;28;20497;-58
2023/07/07 06:56:31;;;;;;;11.20;5.25;;;;;;;19.18;100.00;101877.69;5021056;28;20115;-58
2023/07/07 06:58:59;;;;;;;12.52;5.65;;;;;;;19.30;100.00;101874.94;5013843;28;20045;-58
2023/07/07 07:01:27;;;;;;;9.95;5.65;;;;;;;19.42;100.00;101880.03;5032608;28;20087;-58
2023/07/07 07:03:56;;;;;;;10.23;4.60;;;;;;;19.61;100.00;101883.78;5018047;28;20543;-58
2023/07/07 07:06:24;;;;;;;10.02;5.13;;;;;;;19.76;100.00;101882.44;5017352;28;20041;-58
2023/07/07 07:08:52;;;;;;;12.55;5.43;;;;;;;19.91;100.00;101890.94;5030364;28;20072;-57
2023/07/07 07:11:22;;;;;;;11.50;4.95;;;;;;;20.22;100.00;101882.00;5012254;28;20580;-57
2023/07/07 07:13:50;;;;;;;11.85;4.95;;;;;;;20.43;100.00;101876.56;5009580;28;20378;-58
2023/07/07 07:16:19;;;;;;;11.63;4.82;;;;;;;20.56;100.00;101885.16;5026317;28;20119;-58
2023/07/07 07:18:47;;;;;;;11.90;4.72;;;;;;;20.77;100.00;101884.19;5010569;28;20374;-58
2023/07/07 07:21:16;;;;;;;8.93;4.43;;;;;;;20.93;100.00;101879.09;5031367;28;20049;-58
2023/07/07 07:23:44;;;;;;;12.43;4.53;;;;;;;21.15;100.00;101886.97;5030556;28;20046;-59
2023/07/07 07:26:13;;;;;;;11.75;4.35;;;;;;;21.31;100.00;101886.34;5014837;28;20056;-58
2023/07/07 07:28:43;;;;;;;9.85;4.28;;;;;;;21.45;100.00;101885.88;5010209;28;20046;-58
2023/07/07 07:31:12;;;;;;;13.00;4.15;;;;;;;21.69;100.00;101887.22;5014168;28;20176;-58
2023/07/07 07:33:40;;;;;;;8.43;3.63;;;;;;;22.03;100.00;101889.28;5009968;28;20125;-60
2023/07/07 07:36:08;;;;;;;10.60;3.78;;;;;;;22.25;100.00;101886.19;5017989;28;20124;-60
2023/07/07 07:38:37;;;;;;;11.05;4.10;;;;;;;22.34;100.00;101888.94;5030329;28;20091;-59
2023/07/07 07:41:05;;;;;;;7.50;3.60;;;;;;;22.41;100.00;101888.19;5023790;28;20595;-60
2023/07/07 07:43:33;;;;;;;9.13;3.47;;;;;;;22.72;100.00;101887.81;5014084;28;20065;-59
2023/07/07 07:46:03;;;;;;;9.38;4.10;;;;;;;22.89;100.00;101886.13;5014436;28;20052;-61
2023/07/07 07:48:31;;;;;;;7.38;3.17;;;;;;;23.12;100.00;101881.13;5028515;28;20045;-60
2023/07/07 07:50:59;;;;;;;8.55;2.97;;;;;;;23.37;100.00;101891.13;5014666;28;20148;-60
2023/07/07 07:53:28;;;;;;;8.65;3.05;;;;;;;23.50;100.00;101885.34;5010107;28;20567;-59
2023/07/07 07:55:56;;;;;;;7.57;3.17;;;;;;;23.62;98.48;101884.88;5013512;28;20116;-59
2023/07/07 07:58:24;;;;;;;9.05;3.10;;;;;;;23.55;100.00;101885.72;5003714;28;20052;-60
2023/07/07 08:00:52;;;;;;;8.18;3.15;;;;;;;23.72;100.00;101887.44;5022545;28;20052;-59
2023/07/07 08:03:21;;;;;;;8.25;3.83;;;;;;;23.68;92.28;101885.25;5013306;28;20045;-60
2023/07/07 08:05:50;;;;;;;6.85;2.40;;;;;;;23.85;91.61;101886.16;5026559;28;20037;-59
2023/07/07 08:08:18;;;;;;;5.93;2.15;;;;;;;23.85;86.44;101888.84;5019151;28;20107;-59
2023/07/07 08:10:46;;;;;;;6.25;2.53;;;;;;;24.09;86.40;101894.31;5009141;28;20065;-60
2023/07/07 08:13:32;;;;;;;8.18;2.50;;;;;;;24.22;83.88;101893.84;5011337;28;20052;-58
2023/07/07 08:16:10;;;;;;;6.50;2.50;;;;;;;24.37;81.59;101896.72;5013090;28;20513;-58
2023/07/07 08:18:40;;;;;;;6.25;2.40;;;;;;;24.66;78.62;101906.19;5022447;28;20049;-57
2023/07/07 08:21:08;;;;;;;7.65;2.65;;;;;;;24.70;72.19;101890.56;5021348;28;20070;-60
2023/07/07 08:23:36;;;;;;;8.27;2.67;;;;;;;24.83;71.84;101898.09;5011099;28;20076;-58
2023/07/07 08:26:04;;;;;;;7.47;2.30;;;;;;;24.95;69.59;101903.00;5028495;28;20050;-58
2023/07/07 08:28:36;;;;;;;5.85;2.58;;;;;;;24.96;68.74;101904.69;5028499;28;20112;-58
2023/07/07 08:31:15;;;;;;;7.15;2.63;;;;;;;25.08;70.30;101901.63;5022557;28;20137;-59
2023/07/07 08:33:48;;;;;;;9.25;2.88;;;;;;;25.08;70.59;101902.47;5011191;28;20842;-60
2023/07/07 08:36:27;;;;;;;8.93;2.40;;;;;;;25.41;68.01;101901.59;5029464;28;20281;-59
2023/07/07 08:39:00;;;;;;;10.45;2.72;;;;;;;25.33;64.68;101899.75;5020094;28;20077;-59
2023/07/07 08:41:29;;;;;;;8.18;3.03;;;;;;;25.60;66.21;101900.34;5021938;28;20129;-58
2023/07/07 08:43:57;;;;;;;7.80;2.80;;;;;;;25.59;67.16;101898.66;5021034;28;20061;-58
2023/07/07 08:46:39;;;;;;;6.03;2.40;;;;;;;25.78;65.19;101902.78;5028319;28;20128;-59
2023/07/07 08:49:18;;;;;;;6.30;2.20;;;;;;;25.65;61.66;101898.78;5022622;28;20041;-58
2023/07/07 08:51:55;;;;;;;5.57;2.10;;;;;;;25.96;63.21;101899.84;5013331;28;20120;-57
2023/07/07 08:54:34;;;;;;;6.20;2.30;;;;;;;26.10;61.88;101903.69;5009501;28;20054;-57
2023/07/07 08:57:09;;;;;;;7.30;2.40;;;;;;;26.34;61.79;101896.44;5016472;28;20057;-57
2023/07/07 08:59:50;;;;;;;9.88;2.70;;;;;;;26.61;61.85;101895.06;5008800;28;20034;-58
2023/07/07 09:02:38;;;;;;;8.00;2.40;;;;;;;26.79;59.14;101895.63;5013572;28;20050;-57
2023/07/07 09:05:18;;;;;;;6.07;2.47;;;;;;;26.97;57.99;101895.28;5019093;28;20390;-59
2023/07/07 09:08:03;;;;;;;5.80;1.90;;;;;;;26.70;56.65;101899.41;5019340;28;20093;-58
2023/07/07 09:10:38;;;;;;;6.15;2.08;;;;;;;26.76;56.53;101900.53;5012217;28;20038;-58
2023/07/07 09:13:16;;;;;;;4.72;2.00;;;;;;;26.91;56.54;101889.78;5008225;28;20077;-58
2023/07/07 09:15:57;;;;;;;6.15;2.10;;;;;;;27.23;59.33;101901.25;5008917;28;20073;-60
2023/07/07 09:18:30;;;;;;;;;;;;;;;27.23;54.71;101904.81;5010602;28;20049;-58
2023/07/07 09:21:03;;;;;;;6.55;2.03;;;;;;;27.22;52.83;101905.81;5018659;28;19997;-58
2023/07/07 09:23:33;;;;;;;;;;;;;;;27.12;54.57;101895.28;5029494;28;20054;-58
2023/07/07 09:26:06;;;;;;;4.00;2.05;;;;;;;27.43;55.94;101888.91;5012151;28;19929;-58
2023/07/07 09:28:40;;;;;;;5.05;2.17;;;;;;;27.69;55.28;101890.25;5025462;28;20033;-58
2023/07/07 09:31:24;;;;;;;4.43;1.83;;;;;;;27.70;52.93;101885.72;5021086;28;20053;-58
2023/07/07 09:33:54;;;;;;;5.25;1.90;;;;;;;27.78;50.78;101886.44;5025280;28;20045;-58
2023/07/07 09:36:29;;;;;;;5.43;1.92;;;;;;;28.08;52.13;101891.81;5019693;28;20041;-58
2023/07/07 09:39:12;;;;;;;4.80;1.88;;;;;;;28.16;44.56;101890.84;5023717;28;20173;-58
2023/07/07 09:41:52;;;;;;;4.43;1.92;;;;;;;28.54;45.52;101881.63;5020927;28;20124;-58
2023/07/07 09:44:33;;;;;;;7.47;2.40;;;;;;;28.41;46.14;101891.28;5017288;28;20112;-59
2023/07/07 09:47:12;;;;;;;5.03;2.28;;;;;;;28.51;44.69;101877.47;5015961;28;20104;-59
2023/07/07 09:49:46;;;;;;;4.88;2.17;;;;;;;28.91;43.99;101882.38;5013044;28;20511;-59
2023/07/07 09:52:34;;;;;;;6.15;2.05;;;;;;;28.94;43.86;101882.00;5008338;28;20100;-58
2023/07/07 09:55:09;;;;;;;4.80;1.80;;;;;;;28.63;44.02;101883.16;5008472;28;20489;-57
2023/07/07 09:57:42;;;;;;;5.82;1.90;;;;;;;28.86;44.03;101872.13;5010233;28;20433;-57
2023/07/07 10:00:16;;;;;;;6.70;2.30;;;;;;;29.02;46.24;101876.41;5007946;28;20057;-58
2023/07/07 10:06:00;;;;;;;4.47;1.92;;;;;;;29.24;47.12;101874.47;5020863;28;20049;-57
2023/07/07 10:08:30;;;;;;;6.28;2.38;;;;;;;29.61;46.30;101879.69;5026704;28;20064;-57
2023/07/07 10:11:16;;;;;;;5.40;2.03;;;;;;;29.76;44.19;101874.09;5009075;28;20070;-57
2023/07/07 10:14:06;;;;;;;4.00;2.00;;;;;;;29.83;44.16;101878.53;5020291;28;20749;-57
2023/07/07 10:16:46;;;;;;;6.90;2.30;;;;;;;29.92;44.58;101878.38;5023460;28;20575;-58
2023/07/07 10:19:16;;;;;;;5.25;1.92;;;;;;;29.94;44.97;101873.56;5012046;28;20048;-58
2023/07/07 10:21:44;;;;;;;5.22;1.95;;;;;;;29.78;40.15;101882.88;5017052;28;20049;-57
2023/07/07 10:24:15;;;;;;;6.22;2.28;;;;;;;29.47;39.63;101873.38;5023043;28;20438;-57
2023/07/07 10:26:47;;;;;;;5.45;2.10;;;;;;;30.16;43.40;101880.50;5016744;28;20045;-57
2023/07/07 10:29:17;;;;;;;;;;;;;;;30.61;43.43;101869.09;5025544;28;20042;-58
2023/07/07 10:31:47;;;;;;;4.85;1.90;;;;;;;30.45;41.41;101872.22;5027115;28;19971;-58
2023/07/07 10:34:23;;;;;;;6.65;2.00;;;;;;;30.45;40.77;101873.06;5032133;28;20095;-58
2023/07/07 10:36:54;;;;;;;5.90;2.00;;;;;;;30.49;39.45;101874.31;5013127;28;20465;-58
2023/07/07 10:39:28;;;;;;;8.07;2.25;;;;;;;30.59;39.49;101867.63;5021292;28;20050;-57
2023/07/07 10:41:57;;;;;;;6.05;2.03;;;;;;;30.88;40.01;101873.66;5021906;28;20583;-58
2023/07/07 10:44:26;;;;;;;5.15;2.20;;;;;;;31.12;38.90;101870.31;5020050;28;20046;-58
2023/07/07 10:46:54;;;;;;;5.05;2.08;;;;;;;31.15;39.01;101863.59;5027378;28;20076;-57
2023/07/07 10:49:26;;;;;;;5.00;2.25;;;;;;;30.91;38.66;101863.22;5025452;28;20066;-57
2023/07/07 10:52:11;;;;;;;;;;;;;;;31.18;39.07;101861.31;5027641;28;20641;-58
2023/07/07 10:54:55;;;;;;;6.55;2.50;;;;;;;31.20;36.12;101863.81;5027553;28;20019;-58
2023/07/07 10:57:37;;;;;;;6.15;2.63;;;;;;;31.41;37.25;101857.25;5023891;28;20049;-59
2023/07/07 11:00:24;;;;;;;4.87;2.10;;;;;;;31.65;34.77;101857.59;5015143;28;20516;-58
2023/07/07 11:03:33;;;;;;;6.18;2.10;;;;;;;31.55;37.41;101851.75;5016076;28;20038;-58
2023/07/07 11:06:08;;;;;;;6.68;2.65;;;;;;;31.43;38.77;101855.16;5003656;28;20061;-58
2023/07/07 11:08:48;;;;;;;4.72;1.98;;;;;;;31.78;37.48;101852.09;5008718;28;20054;-59
2023/07/07 11:11:28;;;;;;;5.80;2.17;;;;;;;31.58;36.44;101854.03;5013391;28;20034;-58
2023/07/07 11:14:14;;;;;;;4.55;1.92;;;;;;;31.96;37.35;101853.22;5025246;28;20548;-55
2023/07/07 11:16:58;;;;;;;6.38;2.45;;;;;;;31.83;38.12;101849.53;5024692;28;20529;-57
2023/07/07 11:19:42;;;;;;;7.85;3.38;;;;;;;31.82;36.23;101858.78;5023129;28;20056;-58
2023/07/07 11:22:22;;;;;;;7.80;2.42;;;;;;;32.00;38.44;101846.31;5028273;28;20057;-58
2023/07/07 11:24:58;;;;;;;4.80;2.30;;;;;;;31.49;35.41;101848.84;5018102;28;20073;-59
2023/07/07 11:27:57;;;;;;;6.18;2.50;;;;;;;31.98;35.66;101846.53;5022807;28;20107;-58
2023/07/07 11:30:36;;;;;;;6.10;2.20;;;;;;;31.92;34.92;101847.41;5023453;28;20069;-58
2023/07/07 11:33:22;;;;;;;5.90;2.30;;;;;;;31.83;35.57;101844.09;5021860;28;20121;-58
2023/07/07 11:35:59;;;;;;;7.22;2.55;;;;;;;31.78;35.17;101837.66;5020307;28;20110;-57
2023/07/07 11:38:46;;;;;;;5.63;2.38;;;;;;;31.93;34.51;101837.38;5012146;28;20443;-58
2023/07/07 11:41:23;;;;;;;5.93;2.42;;;;;;;32.24;36.60;101839.25;5008237;28;20062;-58